createdAt,value
2022-09-04T00:02:16.086Z,5.32
2022-09-04T00:05:02.143Z,5.10
2022-09-04T00:07:30.312Z,4.93
2022-09-04T00:10:09.908Z,4.75
2022-09-04T00:13:05.861Z,4.85
2022-09-04T00:15:37.169Z,5.45
2022-09-04T00:18:13.749Z,6.07
2022-09-04T00:20:40.377Z,5.30
2022-09-04T00:23:09.738Z,5.63
2022-09-04T00:25:39.273Z,5.68
2022-09-04T00:28:09.615Z,5.80
2022-09-04T00:30:36.260Z,7.13
2022-09-04T00:33:08.551Z,7.20
2022-09-04T00:35:39.357Z,5.95
2022-09-04T00:38:13.765Z,6.30
2022-09-04T00:40:52.410Z,8.48
2022-09-04T00:43:37.725Z,6.47
2022-09-04T00:46:10.513Z,6.50
2022-09-04T00:48:37.505Z,6.45
2022-09-04T00:51:16.274Z,7.68
2022-09-04T00:54:04.776Z,6.30
2022-09-04T00:56:50.282Z,8.35
2022-09-04T00:59:16.758Z,7.13
2022-09-04T01:01:43.484Z,6.70
2022-09-04T01:04:36.437Z,6.57
2022-09-04T01:07:07.129Z,7.47
2022-09-04T01:09:37.999Z,7.30
2022-09-04T01:12:07.986Z,7.47
2022-09-04T01:14:39.320Z,8.65
2022-09-04T01:17:09.545Z,7.80
2022-09-04T01:19:54.918Z,6.93
2022-09-04T01:22:42.785Z,6.13
2022-09-04T01:25:21.525Z,7.50
2022-09-04T01:28:05.719Z,6.00
2022-09-04T01:30:35.185Z,6.30
2022-09-04T01:33:05.352Z,6.80
2022-09-04T01:35:44.735Z,8.48
2022-09-04T01:38:30.064Z,6.20
2022-09-04T01:41:07.822Z,6.53
2022-09-04T01:43:34.837Z,5.82
2022-09-04T01:46:01.426Z,7.70
2022-09-04T01:48:32.461Z,6.05
2022-09-04T01:51:00.007Z,6.30
2022-09-04T01:53:26.851Z,6.07
2022-09-04T01:55:53.429Z,6.32
2022-09-04T01:58:22.985Z,6.80
2022-09-04T02:00:49.687Z,6.03
2022-09-04T02:03:22.243Z,7.05
2022-09-04T02:06:22.311Z,5.70
2022-09-04T02:08:58.191Z,6.80
2022-09-04T02:11:28.170Z,5.85
2022-09-04T02:14:12.810Z,5.85
2022-09-04T02:16:40.723Z,7.07
2022-09-04T02:19:33.552Z,5.95
2022-09-04T02:22:15.488Z,6.00
2022-09-04T02:25:11.532Z,6.50
2022-09-04T02:27:41.228Z,6.28
2022-09-04T02:30:12.192Z,6.03
2022-09-04T02:32:58.097Z,6.57
2022-09-04T02:35:27.627Z,6.80
2022-09-04T02:38:13.031Z,5.75
2022-09-04T02:40:39.503Z,6.40
2022-09-04T02:43:10.488Z,6.43
2022-09-04T02:45:48.806Z,5.97
2022-09-04T02:48:24.738Z,6.80
2022-09-04T02:50:57.946Z,6.07
2022-09-04T02:53:44.760Z,6.20
2022-09-04T02:56:46.610Z,6.50
2022-09-04T02:59:16.005Z,6.25
2022-09-04T03:01:49.720Z,5.80
2022-09-04T03:04:34.760Z,6.30
2022-09-04T03:07:10.082Z,6.43
2022-09-04T03:09:39.436Z,6.35
2022-09-04T03:12:06.054Z,6.38
2022-09-04T03:14:43.434Z,6.30
2022-09-04T03:17:21.927Z,6.18
2022-09-04T03:20:00.348Z,7.22
2022-09-04T03:22:33.970Z,6.22
2022-09-04T03:25:23.503Z,6.22
2022-09-04T03:27:49.972Z,6.43
2022-09-04T03:30:16.472Z,7.13
2022-09-04T03:33:03.866Z,5.90
2022-09-04T03:35:35.848Z,5.88
2022-09-04T03:38:05.426Z,6.93
2022-09-04T03:40:38.003Z,7.05
2022-09-04T03:43:10.602Z,6.60
2022-09-04T03:45:37.078Z,7.93
2022-09-04T03:48:09.864Z,6.50
2022-09-04T03:50:42.432Z,6.90
2022-09-04T03:53:15.016Z,6.90
2022-09-04T03:55:41.556Z,6.83
2022-09-04T03:58:14.443Z,7.60
2022-09-04T04:01:13.590Z,7.53
2022-09-04T04:03:49.540Z,6.77
2022-09-04T04:06:23.423Z,8.32
2022-09-04T04:08:56.647Z,6.53
2022-09-04T04:11:24.334Z,8.20
2022-09-04T04:13:53.965Z,8.00
2022-09-04T04:16:24.638Z,7.13
2022-09-04T04:18:54.664Z,8.25
2022-09-04T04:21:33.832Z,7.43
2022-09-04T04:24:00.350Z,7.97
2022-09-04T04:26:38.460Z,7.75
2022-09-04T04:29:11.199Z,6.63
2022-09-04T04:31:44.780Z,6.68
2022-09-04T04:34:29.482Z,7.45
2022-09-04T04:36:56.696Z,7.93
2022-09-04T04:39:39.894Z,6.67
2022-09-04T04:42:09.993Z,7.22
2022-09-04T04:44:55.532Z,7.60
2022-09-04T04:47:40.530Z,6.80
2022-09-04T04:50:07.075Z,7.70
2022-09-04T04:52:39.618Z,6.55
2022-09-04T04:55:24.495Z,6.38
2022-09-04T04:58:07.939Z,5.72
2022-09-04T05:00:37.536Z,5.88
2022-09-04T05:03:06.601Z,6.63
2022-09-04T05:06:07.144Z,4.05
2022-09-04T05:08:39.879Z,4.40
2022-09-04T05:11:25.039Z,6.18
2022-09-04T05:14:02.381Z,6.18
2022-09-04T05:16:38.107Z,5.65
2022-09-04T05:19:12.666Z,5.70
2022-09-04T05:21:57.732Z,6.00
2022-09-04T05:24:31.875Z,6.55
2022-09-04T05:27:04.142Z,5.77
2022-09-04T05:29:32.646Z,6.27
2022-09-04T05:32:18.275Z,6.37
2022-09-04T05:35:11.062Z,5.90
2022-09-04T05:38:16.305Z,6.28
2022-09-04T05:40:57.697Z,5.47
2022-09-04T05:43:34.386Z,6.15
2022-09-04T05:46:19.448Z,6.53
2022-09-04T05:48:47.799Z,5.78
2022-09-04T05:51:26.906Z,6.60
2022-09-04T05:54:08.440Z,7.20
2022-09-04T05:56:39.251Z,6.82
2022-09-04T05:59:24.150Z,6.50
2022-09-04T06:02:02.506Z,7.25
2022-09-04T06:04:47.793Z,7.18
2022-09-04T06:07:19.876Z,8.63
2022-09-04T06:10:04.907Z,7.80
2022-09-04T06:12:37.445Z,9.55
2022-09-04T06:15:07.059Z,9.32
2022-09-04T06:17:33.564Z,9.05
2022-09-04T06:20:21.639Z,10.10
2022-09-04T06:23:07.075Z,7.60
2022-09-04T06:25:48.959Z,8.23
2022-09-04T06:28:34.290Z,9.82
2022-09-04T06:31:28.618Z,8.48
2022-09-04T06:33:58.236Z,7.28
2022-09-04T06:36:35.739Z,6.90
2022-09-04T06:39:15.662Z,8.82
2022-09-04T06:41:43.423Z,6.82
2022-09-04T06:44:16.138Z,7.97
2022-09-04T06:46:48.974Z,7.65
2022-09-04T06:49:21.700Z,7.43
2022-09-04T06:52:07.720Z,6.60
2022-09-04T06:54:40.713Z,6.65
2022-09-04T06:57:10.511Z,6.28
2022-09-04T06:59:40.059Z,6.50
2022-09-04T07:02:13.409Z,6.55
2022-09-04T07:04:43.492Z,6.82
2022-09-04T07:07:21.992Z,5.78
2022-09-04T07:09:49.774Z,5.93
2022-09-04T07:12:34.237Z,6.25
2022-09-04T07:15:21.453Z,5.68
2022-09-04T07:18:02.231Z,5.65
2022-09-04T07:20:33.626Z,5.53
2022-09-04T07:23:00.268Z,4.95
2022-09-04T07:25:29.840Z,5.80
2022-09-04T07:28:15.347Z,4.90
2022-09-04T07:30:47.376Z,4.90
2022-09-04T07:33:32.078Z,4.45
2022-09-04T07:36:00.957Z,4.78
2022-09-04T07:38:50.896Z,4.45
2022-09-04T07:41:22.060Z,4.78
2022-09-04T07:43:55.064Z,3.92
2022-09-04T07:46:22.828Z,3.67
2022-09-04T07:48:54.121Z,3.58
2022-09-04T07:51:34.639Z,4.43
2022-09-04T07:54:01.294Z,4.20
2022-09-04T07:56:48.390Z,7.25
2022-09-04T07:59:25.313Z,5.40
2022-09-04T08:02:10.239Z,3.53
2022-09-04T08:04:40.453Z,3.47
2022-09-04T08:07:36.562Z,5.85
2022-09-04T08:10:06.085Z,3.78
2022-09-04T08:12:51.551Z,3.15
2022-09-04T08:15:22.014Z,3.75
2022-09-04T08:18:01.711Z,3.35
2022-09-04T08:20:47.094Z,4.03
2022-09-04T08:23:34.766Z,3.28
2022-09-04T08:26:16.914Z,3.72
2022-09-04T08:28:46.734Z,4.13
2022-09-04T08:31:29.681Z,3.60
2022-09-04T08:34:15.339Z,3.42
2022-09-04T08:36:41.873Z,4.20
2022-09-04T08:39:12.042Z,3.97
2022-09-04T08:41:50.434Z,4.72
2022-09-04T08:44:35.749Z,4.88
2022-09-04T08:47:21.093Z,4.20
2022-09-04T08:49:54.505Z,3.67
2022-09-04T08:52:39.729Z,3.08
2022-09-04T08:55:09.633Z,3.42
2022-09-04T08:57:54.608Z,4.10
2022-09-04T09:00:21.739Z,2.95
2022-09-04T09:02:54.626Z,3.10
2022-09-04T09:05:39.976Z,2.85
2022-09-04T09:08:15.965Z,3.03
2022-09-04T09:11:02.250Z,3.83
2022-09-04T09:13:28.766Z,3.00
2022-09-04T09:16:14.134Z,2.55
2022-09-04T09:18:56.969Z,3.20
2022-09-04T09:21:42.340Z,3.97
2022-09-04T09:24:28.127Z,3.67
2022-09-04T09:27:02.077Z,3.28
2022-09-04T09:29:47.517Z,3.10
2022-09-04T09:32:13.998Z,3.22
2022-09-04T09:34:49.190Z,3.30
2022-09-04T09:37:37.794Z,3.00
2022-09-04T09:40:14.020Z,3.22
2022-09-04T09:42:43.596Z,2.50
2022-09-04T09:45:19.302Z,2.90
2022-09-04T09:48:01.206Z,2.80
2022-09-04T09:50:43.112Z,3.20
2022-09-04T09:53:18.740Z,3.03
2022-09-04T09:55:45.429Z,3.25
2022-09-04T09:58:32.222Z,3.47
2022-09-04T10:00:59.150Z,4.05
2022-09-04T10:03:44.279Z,4.07
2022-09-04T10:06:29.716Z,4.40
2022-09-04T10:09:19.628Z,4.75
2022-09-04T10:11:55.246Z,3.70
2022-09-04T10:14:40.102Z,4.18
2022-09-04T10:17:31.672Z,4.22
2022-09-04T10:20:10.642Z,4.50
2022-09-04T10:22:58.087Z,5.50
2022-09-04T10:25:24.639Z,6.35
2022-09-04T10:27:59.968Z,5.97
2022-09-04T10:30:28.830Z,5.80
2022-09-04T10:33:07.999Z,5.63
2022-09-04T10:35:58.335Z,5.82
2022-09-04T10:38:26.924Z,5.55
2022-09-04T10:41:09.898Z,5.57
2022-09-04T10:43:55.327Z,5.85
2022-09-04T10:46:37.226Z,5.57
2022-09-04T10:49:30.571Z,5.90
2022-09-04T10:52:21.894Z,6.15
2022-09-04T10:54:54.704Z,6.43
2022-09-04T10:57:37.446Z,6.35
2022-09-04T11:00:05.677Z,6.45
2022-09-04T11:02:50.972Z,6.60
2022-09-04T11:05:19.064Z,7.05
2022-09-04T11:07:45.531Z,5.88
2022-09-04T11:10:12.549Z,5.80
2022-09-04T11:12:39.121Z,5.35
2022-09-04T11:15:24.449Z,5.28
2022-09-04T11:18:00.073Z,5.65
2022-09-04T11:20:26.579Z,5.05
2022-09-04T11:22:53.115Z,5.68
2022-09-04T11:25:22.817Z,5.60
2022-09-04T11:28:23.627Z,5.75
2022-09-04T11:31:03.115Z,6.65
2022-09-04T11:33:48.627Z,9.10
2022-09-04T11:36:24.390Z,5.90
2022-09-04T11:39:03.411Z,5.90
2022-09-04T11:41:48.911Z,5.60
2022-09-04T11:44:18.518Z,6.22
2022-09-04T11:46:47.285Z,7.18
2022-09-04T11:49:34.630Z,6.43
2022-09-04T11:52:22.874Z,6.50
2022-09-04T11:55:00.220Z,6.65
2022-09-04T11:57:32.769Z,6.65
2022-09-04T12:00:06.282Z,5.75
2022-09-04T12:02:42.021Z,6.38
2022-09-04T12:05:39.433Z,6.38
2022-09-04T12:08:18.148Z,5.75
2022-09-04T12:10:44.991Z,5.30
2022-09-04T12:13:32.158Z,5.72
2022-09-04T12:16:00.918Z,5.55
2022-09-04T12:18:38.748Z,5.78
2022-09-04T12:21:14.453Z,6.15
2022-09-04T12:23:41.055Z,5.82
2022-09-04T12:26:07.620Z,5.28
2022-09-04T12:28:57.110Z,4.47
2022-09-04T12:31:29.266Z,6.00
2022-09-04T12:34:04.981Z,4.75
2022-09-04T12:36:37.553Z,4.95
2022-09-04T12:39:16.634Z,5.35
2022-09-04T12:41:54.586Z,5.03
2022-09-04T12:44:44.025Z,5.45
2022-09-04T12:47:23.049Z,5.15
2022-09-04T12:49:57.773Z,5.22
2022-09-04T12:52:30.855Z,5.60
2022-09-04T12:55:03.405Z,4.88
2022-09-04T12:57:40.570Z,6.97
2022-09-04T13:00:14.808Z,7.50
2022-09-04T13:02:49.295Z,5.60
2022-09-04T13:05:36.782Z,6.93
2022-09-04T13:14:32.094Z,5.65
2022-09-04T13:17:08.199Z,4.97
2022-09-04T13:19:46.719Z,5.80
2022-09-04T13:22:13.189Z,5.47
2022-09-04T13:24:51.326Z,5.53
2022-09-04T13:27:32.735Z,5.60
2022-09-04T13:30:32.563Z,5.40
2022-09-04T13:33:20.125Z,5.60
2022-09-04T13:35:59.328Z,4.32
2022-09-04T13:38:25.876Z,4.10
2022-09-04T13:40:55.103Z,4.53
2022-09-04T13:43:51.193Z,4.20
2022-09-04T13:46:19.031Z,3.67
2022-09-04T13:48:46.675Z,3.08
2022-09-04T13:51:16.087Z,3.60
2022-09-04T13:53:47.364Z,3.08
2022-09-04T13:56:17.329Z,3.08
2022-09-04T13:58:51.797Z,3.10
2022-09-04T14:01:22.706Z,3.25
2022-09-04T14:03:53.585Z,3.72
2022-09-04T14:06:20.890Z,3.40
2022-09-04T14:09:04.322Z,4.68
2022-09-04T14:11:37.603Z,5.93
2022-09-04T14:14:11.075Z,5.10
2022-09-04T14:16:41.921Z,7.28
2022-09-04T14:19:17.515Z,5.85
2022-09-04T14:21:55.512Z,5.72
2022-09-04T14:24:25.122Z,6.15
2022-09-04T14:27:01.427Z,11.90
2022-09-04T14:29:36.383Z,6.22
2022-09-04T14:32:22.814Z,5.68
2022-09-04T14:34:56.440Z,10.25
2022-09-04T14:37:36.445Z,7.47
2022-09-04T14:40:25.827Z,15.10
2022-09-04T14:43:01.721Z,11.00
2022-09-04T14:45:35.874Z,5.97
2022-09-04T14:48:04.437Z,2.85
2022-09-04T14:50:31.852Z,3.75
2022-09-04T14:53:02.315Z,2.17
2022-09-04T14:55:52.059Z,3.22
2022-09-04T14:58:20.188Z,2.53
2022-09-04T15:01:02.116Z,2.22
2022-09-04T15:03:30.183Z,2.17
2022-09-04T15:05:57.811Z,2.08
2022-09-04T15:08:39.962Z,5.28
2022-09-04T15:11:10.551Z,2.38
2022-09-04T15:13:37.065Z,2.67
2022-09-04T15:16:06.764Z,1.90
2022-09-04T15:18:40.746Z,2.10
2022-09-04T15:21:21.098Z,1.85
2022-09-04T15:23:48.124Z,1.70
2022-09-04T15:26:19.640Z,2.70
2022-09-04T15:28:50.354Z,1.90
2022-09-04T15:31:26.693Z,1.80
2022-09-04T15:33:53.255Z,3.20
2022-09-04T15:36:23.278Z,2.17
2022-09-04T15:39:02.254Z,2.65
2022-09-04T15:41:34.867Z,2.28
2022-09-04T15:44:02.454Z,2.35
2022-09-04T15:46:50.399Z,3.28
2022-09-04T15:49:24.794Z,3.53
2022-09-04T15:51:51.595Z,2.40
2022-09-04T15:54:29.029Z,2.53
2022-09-04T15:56:56.748Z,2.45
2022-09-04T15:59:24.997Z,2.53
2022-09-04T16:02:13.368Z,2.63
2022-09-04T16:05:23.088Z,3.00
2022-09-04T16:07:50.372Z,3.65
2022-09-04T16:10:25.916Z,3.50
2022-09-04T16:13:08.327Z,3.50
2022-09-04T16:15:37.846Z,3.70
2022-09-04T16:18:11.238Z,4.13
2022-09-04T16:20:48.645Z,4.65
2022-09-04T16:23:17.275Z,4.07
2022-09-04T16:25:44.403Z,4.57
2022-09-04T16:28:20.271Z,3.97
2022-09-04T16:30:47.322Z,4.88
2022-09-04T16:33:36.807Z,4.28
2022-09-04T16:36:34.532Z,4.95
2022-09-04T16:39:06.055Z,5.65
2022-09-04T16:41:38.677Z,5.60
2022-09-04T16:44:05.224Z,5.97
2022-09-04T16:46:32.620Z,7.03
2022-09-04T16:49:03.152Z,5.90
2022-09-04T16:51:41.086Z,6.78
2022-09-04T16:54:13.547Z,6.35
2022-09-04T16:56:42.938Z,6.05
2022-09-04T16:59:09.418Z,6.38
2022-09-04T17:01:47.454Z,6.25
2022-09-04T17:04:19.607Z,6.85
2022-09-04T17:06:57.656Z,6.30
2022-09-04T17:09:29.076Z,6.00
2022-09-04T17:11:58.206Z,6.82
2022-09-04T17:14:41.583Z,6.50
2022-09-04T17:17:30.247Z,5.72
2022-09-04T17:20:19.991Z,5.32
2022-09-04T17:28:58.962Z,6.13
2022-09-04T17:29:13.593Z,4.65
2022-09-04T17:29:15.422Z,5.13
2022-09-04T17:31:45.714Z,5.10
2022-09-04T17:40:37.934Z,4.13
2022-09-04T17:40:47.085Z,4.65
2022-09-04T17:40:53.995Z,4.82
2022-09-04T17:43:22.064Z,4.60
2022-09-04T17:46:02.646Z,4.80
2022-09-04T17:48:49.485Z,4.60
2022-09-04T17:51:17.280Z,4.63
2022-09-04T17:53:46.460Z,4.75
2022-09-04T17:56:18.747Z,5.82
2022-09-04T17:58:53.333Z,5.53
2022-09-04T18:01:38.491Z,4.85
2022-09-04T18:04:21.423Z,4.68
2022-09-04T18:06:52.019Z,4.05
2022-09-04T18:09:32.824Z,4.32
2022-09-04T18:12:01.031Z,4.93
2022-09-04T18:14:33.230Z,4.25
2022-09-04T18:17:11.729Z,4.25
2022-09-04T18:19:49.511Z,5.00
2022-09-04T18:22:26.717Z,4.93
2022-09-04T18:25:00.609Z,5.78
2022-09-04T18:27:51.477Z,5.75
2022-09-04T18:37:08.165Z,4.63
2022-09-04T18:37:19.208Z,5.40
2022-09-04T18:37:26.388Z,5.85
2022-09-04T18:39:58.190Z,5.38
2022-09-04T18:50:30.121Z,6.13
2022-09-04T18:50:31.550Z,4.80
2022-09-04T18:50:38.083Z,7.32
2022-09-04T18:51:20.695Z,5.55
2022-09-04T18:53:51.410Z,5.88
2022-09-04T18:56:38.531Z,5.88
2022-09-04T18:59:18.530Z,6.85
2022-09-04T19:01:45.757Z,7.20
2022-09-04T19:04:19.280Z,6.68
2022-09-04T19:06:48.437Z,8.32
2022-09-04T19:09:15.795Z,7.75
2022-09-04T19:11:44.257Z,6.63
2022-09-04T19:14:19.225Z,7.13
2022-09-04T19:16:52.147Z,8.52
2022-09-04T19:19:39.930Z,7.93
2022-09-04T19:22:13.305Z,9.60
2022-09-04T19:24:42.978Z,8.20
2022-09-04T19:27:26.601Z,7.60
2022-09-04T19:29:57.159Z,8.18
2022-09-04T19:32:44.571Z,8.80
2022-09-04T19:35:17.446Z,6.40
2022-09-04T19:40:44.697Z,6.30
2022-09-04T19:46:08.157Z,6.65
2022-09-04T19:46:19.914Z,6.00
2022-09-04T19:46:43.886Z,6.32
2022-09-04T19:53:20.262Z,6.32
2022-09-04T19:53:36.584Z,6.63
2022-09-04T19:55:25.078Z,4.93
2022-09-04T19:58:04.566Z,6.95
2022-09-04T20:00:43.174Z,5.60
2022-09-04T20:03:38.205Z,6.20
2022-09-04T20:06:20.024Z,6.35
2022-09-04T20:09:00.993Z,6.13
2022-09-04T20:11:39.469Z,6.85
2022-09-04T20:14:13.809Z,6.00
2022-09-04T20:16:53.523Z,5.30
2022-09-04T20:19:28.234Z,5.55
2022-09-04T20:22:01.978Z,5.72
2022-09-04T20:24:36.137Z,5.90
2022-09-04T20:27:32.071Z,6.60
2022-09-04T20:30:01.793Z,6.45
2022-09-04T20:32:31.423Z,5.88
2022-09-04T20:35:13.103Z,6.57
2022-09-04T20:37:44.512Z,6.03
2022-09-04T20:40:31.178Z,6.00
2022-09-04T20:43:03.764Z,5.78
2022-09-04T20:49:35.237Z,6.30
2022-09-04T20:52:45.832Z,6.43
2022-09-04T20:53:07.403Z,6.82
2022-09-04T20:54:29.707Z,7.57
2022-09-04T21:01:47.598Z,7.10
2022-09-04T21:03:14.704Z,6.47
2022-09-04T21:03:28.912Z,6.43
2022-09-04T21:06:14.626Z,9.48
2022-09-04T21:08:49.627Z,6.90
2022-09-04T21:11:39.077Z,7.85
2022-09-04T21:14:09.964Z,8.38
2022-09-04T21:16:45.612Z,10.10
2022-09-04T21:19:28.271Z,8.38
2022-09-04T21:22:02.461Z,9.48
2022-09-04T21:24:34.917Z,9.10
2022-09-04T21:27:19.884Z,10.48
2022-09-04T21:29:49.423Z,11.48
2022-09-04T21:32:28.160Z,12.57
2022-09-04T21:35:09.930Z,10.43
2022-09-04T21:37:47.316Z,10.73
2022-09-04T21:40:34.037Z,12.13
2022-09-04T21:43:12.368Z,12.07
2022-09-04T21:45:38.959Z,12.30
2022-09-04T21:48:17.806Z,11.95
2022-09-04T21:51:03.932Z,12.00
2022-09-04T21:53:42.481Z,11.95
2022-09-04T22:01:03.404Z,13.57
2022-09-04T22:02:35.693Z,11.48
2022-09-04T22:02:36.517Z,12.95
2022-09-04T22:04:46.573Z,12.30
2022-09-04T22:11:28.214Z,11.63
2022-09-04T22:13:30.588Z,12.02
2022-09-04T22:13:38.175Z,11.57
2022-09-04T22:16:13.667Z,11.77
2022-09-04T22:18:55.818Z,14.15
2022-09-04T22:21:25.772Z,14.32
2022-09-04T22:23:55.318Z,12.82
2022-09-04T22:26:24.247Z,15.18
2022-09-04T22:28:53.916Z,13.68
2022-09-04T22:31:24.534Z,12.85
2022-09-04T22:34:16.621Z,12.52
2022-09-04T22:37:02.474Z,11.80
2022-09-04T22:39:31.672Z,12.90
2022-09-04T22:42:01.487Z,11.38
2022-09-04T22:44:40.653Z,11.43
2022-09-04T22:47:25.803Z,11.77
2022-09-04T22:50:06.046Z,11.82
2022-09-04T22:52:50.926Z,12.68
2022-09-04T22:55:36.582Z,10.40
2022-09-04T22:58:18.183Z,11.32
2022-09-04T23:01:04.551Z,10.70
2022-09-04T23:03:38.169Z,11.48
2022-09-04T23:07:00.701Z,12.73
2022-09-04T23:14:01.801Z,10.52
2022-09-04T23:14:03.086Z,10.27
2022-09-04T23:14:55.174Z,13.40
2022-09-04T23:18:00.926Z,13.02
2022-09-04T23:26:33.135Z,15.35
2022-09-04T23:26:47.169Z,10.65
2022-09-04T23:26:48.654Z,12.55
2022-09-04T23:29:45.067Z,10.70
2022-09-04T23:32:22.473Z,10.90
2022-09-04T23:35:14.170Z,10.32
2022-09-04T23:37:42.098Z,11.23
2022-09-04T23:40:11.068Z,12.65
2022-09-04T23:43:03.946Z,9.57
2022-09-04T23:45:37.391Z,8.63
2022-09-04T23:48:21.447Z,9.65
2022-09-04T23:50:54.819Z,11.73
2022-09-04T23:53:40.088Z,10.00
2022-09-04T23:56:18.885Z,12.20
2022-09-04T23:59:27.395Z,9.55
